createdAt,value
2023-03-15T00:02:02.041Z,6.00
2023-03-15T00:07:04.221Z,6.00
2023-03-15T00:12:06.939Z,5.90
2023-03-15T00:17:09.136Z,6.00
2023-03-15T00:22:11.349Z,6.00
2023-03-15T00:27:13.419Z,6.00
2023-03-15T00:32:15.590Z,6.00
2023-03-15T00:37:19.708Z,5.90
2023-03-15T00:42:22.140Z,5.80
2023-03-15T00:47:24.217Z,5.80
2023-03-15T00:52:26.524Z,5.80
2023-03-15T00:57:28.728Z,5.80
2023-03-15T01:02:31.355Z,5.70
2023-03-15T01:07:33.799Z,5.80
2023-03-15T01:12:36.143Z,5.70
2023-03-15T01:17:39.761Z,5.60
2023-03-15T01:22:41.932Z,5.60
2023-03-15T01:27:44.042Z,5.60
2023-03-15T01:32:46.271Z,5.60
2023-03-15T01:37:52.110Z,5.60
2023-03-15T01:43:04.047Z,5.50
2023-03-15T01:48:06.596Z,5.50
2023-03-15T01:53:09.180Z,5.50
2023-03-15T01:58:13.524Z,5.40
2023-03-15T02:03:24.878Z,5.50
2023-03-15T02:08:41.629Z,5.60
2023-03-15T02:13:46.520Z,5.60
2023-03-15T02:18:48.994Z,5.60
2023-03-15T02:24:15.941Z,5.60
2023-03-15T02:29:18.116Z,5.60
2023-03-15T02:34:25.367Z,5.60
2023-03-15T02:39:27.593Z,5.50
2023-03-15T02:44:38.277Z,5.40
2023-03-15T02:49:45.034Z,5.30
2023-03-15T02:54:47.395Z,5.20
2023-03-15T02:59:51.067Z,5.10
2023-03-15T03:04:53.838Z,5.10
2023-03-15T03:09:56.130Z,5.20
2023-03-15T03:14:59.012Z,5.40
2023-03-15T03:20:01.124Z,5.40
2023-03-15T03:25:11.097Z,5.40
2023-03-15T03:30:14.893Z,5.30
2023-03-15T03:35:23.406Z,5.30
2023-03-15T03:40:25.592Z,5.30
2023-03-15T03:45:28.004Z,5.30
2023-03-15T03:50:33.347Z,5.30
2023-03-15T03:55:35.820Z,5.30
2023-03-15T04:00:38.267Z,5.20
2023-03-15T04:05:42.036Z,5.30
2023-03-15T04:10:44.680Z,5.30
2023-03-15T04:15:47.823Z,5.30
2023-03-15T04:20:54.699Z,5.30
2023-03-15T04:25:58.207Z,5.30
2023-03-15T04:31:20.944Z,5.30
2023-03-15T04:36:35.367Z,5.20
2023-03-15T04:41:50.868Z,5.10
2023-03-15T04:47:04.780Z,5.10
2023-03-15T04:52:15.473Z,5.10
2023-03-15T04:57:39.965Z,5.20
2023-03-15T05:03:02.267Z,5.20
2023-03-15T05:08:20.922Z,5.30
2023-03-15T05:13:41.291Z,5.30
2023-03-15T05:19:00.475Z,5.30
2023-03-15T05:24:16.824Z,5.30
2023-03-15T05:29:41.921Z,5.30
2023-03-15T05:34:44.217Z,5.30
2023-03-15T05:40:04.662Z,5.40
2023-03-15T05:45:20.040Z,5.40
2023-03-15T05:50:42.653Z,5.30
2023-03-15T05:56:10.595Z,5.10
2023-03-15T06:01:31.696Z,4.90
2023-03-15T06:06:54.060Z,4.90
2023-03-15T06:11:57.531Z,4.90
2023-03-15T06:16:59.706Z,4.80
2023-03-15T06:22:04.735Z,4.80
2023-03-15T06:27:15.919Z,4.90
2023-03-15T06:32:18.295Z,4.90
2023-03-15T06:37:34.333Z,4.90
2023-03-15T06:42:38.973Z,5.10
2023-03-15T06:47:42.834Z,5.20
2023-03-15T06:52:46.615Z,5.20
2023-03-15T06:57:48.964Z,5.30
2023-03-15T07:02:51.160Z,5.30
2023-03-15T07:07:53.239Z,5.50
2023-03-15T07:12:55.280Z,5.70
2023-03-15T07:17:57.402Z,5.80
2023-03-15T07:22:59.497Z,5.80
2023-03-15T07:28:01.621Z,5.80
2023-03-15T07:33:03.745Z,5.80
2023-03-15T07:38:05.866Z,6.00
2023-03-15T07:43:07.928Z,6.20
2023-03-15T07:48:10.083Z,6.30
2023-03-15T07:53:12.129Z,6.40
2023-03-15T07:58:14.809Z,6.50
2023-03-15T08:03:17.130Z,6.70
2023-03-15T08:08:19.383Z,6.80
2023-03-15T08:13:21.539Z,6.90
2023-03-15T08:18:23.720Z,7.00
2023-03-15T08:23:25.968Z,7.20
2023-03-15T08:28:28.071Z,7.50
2023-03-15T08:33:30.531Z,7.60
2023-03-15T08:38:32.998Z,7.70
2023-03-15T08:43:35.217Z,7.90
2023-03-15T08:48:37.293Z,8.10
2023-03-15T08:53:39.781Z,8.30
2023-03-15T08:58:42.233Z,8.50
2023-03-15T09:03:44.315Z,8.60
2023-03-15T09:08:46.350Z,8.60
2023-03-15T09:13:49.069Z,8.60
2023-03-15T09:18:51.115Z,8.80
2023-03-15T09:23:53.328Z,9.10
2023-03-15T09:28:55.373Z,9.40
2023-03-15T09:33:57.603Z,9.70
2023-03-15T09:39:00.248Z,9.80
2023-03-15T09:44:18.541Z,10.00
2023-03-15T09:49:28.290Z,10.30
2023-03-15T09:54:47.907Z,10.40
2023-03-15T09:59:54.088Z,10.70
2023-03-15T10:05:11.029Z,10.90
2023-03-15T10:10:38.379Z,11.10
2023-03-15T10:15:40.686Z,11.00
2023-03-15T10:20:53.240Z,11.10
2023-03-15T10:25:55.962Z,11.10
2023-03-15T10:31:00.923Z,11.20
2023-03-15T10:36:13.555Z,11.20
2023-03-15T10:41:29.727Z,11.50
2023-03-15T10:46:31.858Z,11.80
2023-03-15T10:51:43.343Z,11.90
2023-03-15T10:56:57.549Z,11.90
2023-03-15T11:02:11.655Z,12.10
2023-03-15T11:07:14.147Z,12.40
2023-03-15T11:12:24.191Z,12.60
2023-03-15T11:17:30.865Z,12.60
2023-03-15T11:22:32.990Z,12.70
2023-03-15T11:27:35.408Z,12.70
2023-03-15T11:32:38.103Z,12.90
2023-03-15T11:37:40.161Z,12.70
2023-03-15T11:42:49.614Z,12.80
2023-03-15T11:48:04.271Z,12.80
2023-03-15T11:53:07.013Z,12.50
2023-03-15T11:58:27.716Z,12.40
2023-03-15T12:03:29.953Z,12.30
2023-03-15T12:08:53.994Z,12.20
2023-03-15T12:13:58.799Z,11.90
2023-03-15T12:19:23.558Z,11.80
2023-03-15T12:24:52.812Z,11.70
2023-03-15T12:30:01.602Z,11.60
2023-03-15T12:35:15.992Z,11.60
2023-03-15T12:40:18.963Z,11.60
2023-03-15T12:45:21.115Z,11.90
2023-03-15T12:50:44.953Z,12.20
2023-03-15T12:55:47.650Z,12.70
2023-03-15T13:00:54.312Z,13.00
2023-03-15T13:06:12.048Z,13.20
2023-03-15T13:11:19.906Z,13.20
2023-03-15T13:16:36.858Z,13.00
2023-03-15T13:21:58.468Z,12.70
2023-03-15T13:27:25.708Z,12.60
2023-03-15T13:32:27.947Z,12.50
2023-03-15T13:37:30.109Z,12.40
2023-03-15T13:42:32.247Z,12.60
2023-03-15T13:47:35.182Z,12.90
2023-03-15T13:52:37.399Z,13.10
2023-03-15T13:57:39.604Z,13.20
2023-03-15T14:02:51.012Z,13.10
2023-03-15T14:08:13.308Z,12.90
2023-03-15T14:13:35.748Z,12.90
2023-03-15T14:18:41.664Z,12.90
2023-03-15T14:23:46.869Z,12.80
2023-03-15T14:28:55.264Z,12.60
2023-03-15T14:34:05.672Z,12.60
2023-03-15T14:39:25.112Z,12.50
2023-03-15T14:44:27.240Z,12.70
2023-03-15T14:49:29.669Z,12.90
2023-03-15T14:54:33.664Z,12.90
2023-03-15T14:59:35.725Z,12.80
2023-03-15T15:04:39.542Z,12.80
2023-03-15T15:09:50.390Z,12.90
2023-03-15T15:14:52.475Z,13.20
2023-03-15T15:19:54.577Z,13.40
2023-03-15T15:24:56.736Z,13.60
2023-03-15T15:29:58.839Z,13.80
2023-03-15T15:35:02.510Z,13.70
2023-03-15T15:40:10.410Z,13.60
2023-03-15T15:45:15.158Z,13.30
2023-03-15T15:50:19.337Z,13.00
2023-03-15T15:55:24.707Z,12.90
2023-03-15T16:00:28.313Z,12.80
2023-03-15T16:05:32.940Z,12.80
2023-03-15T16:10:35.540Z,12.80
2023-03-15T16:15:37.643Z,12.60
2023-03-15T16:20:41.098Z,12.60
2023-03-15T16:25:43.818Z,12.60
2023-03-15T16:30:47.046Z,12.50
2023-03-15T16:35:50.517Z,12.50
2023-03-15T16:40:53.432Z,12.30
2023-03-15T16:45:55.618Z,12.20
2023-03-15T16:50:57.750Z,12.10
2023-03-15T16:55:59.893Z,12.10
2023-03-15T17:01:02.082Z,12.00
2023-03-15T17:06:04.443Z,11.90
2023-03-15T17:11:08.849Z,11.90
2023-03-15T17:16:12.639Z,12.00
2023-03-15T17:21:18.058Z,12.00
2023-03-15T17:26:23.537Z,11.90
2023-03-15T17:31:26.119Z,11.70
2023-03-15T17:36:32.833Z,11.70
2023-03-15T17:41:39.635Z,11.60
2023-03-15T17:46:43.061Z,11.50
2023-03-15T17:51:45.264Z,11.40
2023-03-15T17:56:47.393Z,11.40
2023-03-15T18:01:49.608Z,11.10
2023-03-15T18:06:53.130Z,11.00
2023-03-15T18:11:55.408Z,11.00
2023-03-15T18:16:57.609Z,11.00
2023-03-15T18:21:59.745Z,10.90
2023-03-15T18:27:01.847Z,10.90
2023-03-15T18:32:04.634Z,10.80
2023-03-15T18:37:06.892Z,10.80
2023-03-15T18:42:10.834Z,10.70
2023-03-15T18:47:12.969Z,10.60
2023-03-15T18:52:16.120Z,10.60
2023-03-15T18:57:20.592Z,10.50
2023-03-15T19:02:22.722Z,10.50
2023-03-15T19:07:25.739Z,10.50
2023-03-15T19:12:27.913Z,10.50
2023-03-15T19:17:29.984Z,10.50
2023-03-15T19:22:33.374Z,10.50
2023-03-15T19:27:35.846Z,10.40
2023-03-15T19:32:38.071Z,10.40
2023-03-15T19:37:42.509Z,10.40
2023-03-15T19:42:45.336Z,10.50
2023-03-15T19:47:47.678Z,10.40
2023-03-15T19:52:50.029Z,10.50
2023-03-15T19:57:52.360Z,10.50
2023-03-15T20:02:55.486Z,10.50
2023-03-15T20:07:57.662Z,10.40
2023-03-15T20:12:59.948Z,10.40
2023-03-15T20:18:04.057Z,10.40
2023-03-15T20:23:06.259Z,10.50
2023-03-15T20:28:08.688Z,10.50
2023-03-15T20:33:10.798Z,10.50
2023-03-15T20:38:13.371Z,10.60
2023-03-15T20:43:15.501Z,10.60
2023-03-15T20:48:17.655Z,10.60
2023-03-15T20:53:19.908Z,10.60
2023-03-15T20:58:22.186Z,10.60
2023-03-15T21:03:24.301Z,10.60
2023-03-15T21:08:26.492Z,10.60
2023-03-15T21:13:29.633Z,10.60
2023-03-15T21:18:33.680Z,10.60
2023-03-15T21:23:36.132Z,10.60
2023-03-15T21:28:39.024Z,10.50
2023-03-15T21:33:41.153Z,10.50
2023-03-15T21:38:43.312Z,10.50
2023-03-15T21:43:45.393Z,10.40
2023-03-15T21:48:47.671Z,10.40
2023-03-15T21:53:50.421Z,10.40
2023-03-15T21:58:53.989Z,10.40
2023-03-15T22:03:56.075Z,10.40
2023-03-15T22:08:58.178Z,10.40
2023-03-15T22:14:00.663Z,10.40
2023-03-15T22:19:03.906Z,10.40
2023-03-15T22:24:06.384Z,10.50
2023-03-15T22:29:08.919Z,10.50
2023-03-15T22:34:11.047Z,10.50
2023-03-15T22:39:14.362Z,10.50
2023-03-15T22:44:16.464Z,10.40
2023-03-15T22:49:18.613Z,10.40
2023-03-15T22:54:21.330Z,10.40
2023-03-15T22:59:28.949Z,10.40
2023-03-15T23:04:31.385Z,10.40
2023-03-15T23:09:33.535Z,10.40
2023-03-15T23:14:36.142Z,10.30
2023-03-15T23:19:38.284Z,10.30
2023-03-15T23:24:40.429Z,10.30
2023-03-15T23:29:53.632Z,10.40
2023-03-15T23:34:56.558Z,10.40
2023-03-15T23:39:59.258Z,10.40
2023-03-15T23:45:01.404Z,10.30
2023-03-15T23:50:04.061Z,10.50
2023-03-15T23:55:06.640Z,10.20
